Latest Weather Observations for Mount Ginini

IDN60801

Issued at 10:32 am EST Tuesday 26 May 2020 (issued every 10 minutes, with the page automatically refreshed every 10 minutes)

About weather observations | Map of weather stations | Latest weather observations for NSW | Other Formats
Station Details ID: 070349 Name: MOUNT GININI AWS Lat: -35.53 Lon: 148.77 Height: 1760.0 m
Data from the previous 72 hours. | See also: Recent months at Mount Ginini
Date/Time
EST
Temp
°C
App
Temp
°C
Dew
Point
°C
Rel
Hum
%
Delta-T
°C
Wind Press
QNH
hPa
Press
MSL
hPa
Rain since
9am
mm
Dir  Spd
km/h
Gust
km/h
Spd
kts
Gust
kts
26/10:30am 4.8 -0.9 4.8 100 0.0 E 24 41 13 22 - - 0.0
26/10:00am 4.5 -1.7 4.5 100 0.0 E 26 43 14 23 - - 0.0
26/09:30am 4.1 -1.4 4.1 100 0.0 E 22 39 12 21 - - 0.0
26/09:00am 3.9 -2.0 3.9 100 0.0 E 24 43 13 23 - - 0.0
26/08:30am 3.6 -2.7 3.6 100 0.0 E 26 44 14 24 - - 0.0
26/08:04am 3.6 -3.1 3.6 100 0.0 E 28 46 15 25 - - 0.0
26/08:00am 3.6 -3.1 3.6 100 0.0 E 28 43 15 23 - - 0.0
26/07:30am 3.5 -2.1 3.5 100 0.0 ESE 22 46 12 25 - - 0.0
26/07:00am 3.4 -2.6 3.4 100 0.0 ESE 24 41 13 22 - - 0.0
26/06:30am 3.3 -2.3 3.3 100 0.0 E 22 43 12 23 - - 0.0
26/06:00am 3.1 -2.9 3.1 100 0.0 E 24 41 13 22 - - 0.0
26/05:30am 3.1 -2.2 3.1 100 0.0 E 20 43 11 23 - - 0.0
26/05:00am 3.2 -2.8 3.2 100 0.0 ESE 24 50 13 27 - - 0.0
26/04:30am 2.7 -4.2 2.7 100 0.0 E 28 50 15 27 - - 0.0
26/04:14am 2.7 -4.2 2.7 100 0.0 E 28 50 15 27 - - 0.0
26/04:00am 2.7 -3.8 2.7 100 0.0 E 26 46 14 25 - - 0.0
26/03:30am 2.8 -3.3 2.8 100 0.0 E 24 41 13 22 - - 0.0
26/03:00am 2.6 -3.1 2.6 100 0.0 E 22 41 12 22 - - 0.0
26/02:30am 2.4 -2.1 2.4 100 0.0 ESE 15 35 8 19 - - 0.0
26/02:00am 2.0 -2.1 2.0 100 0.0 ESE 13 37 7 20 - - 0.0
26/01:30am 1.7 -3.8 1.7 100 0.0 ESE 20 41 11 22 - - 0.0
26/01:00am 1.6 -5.1 1.6 100 0.0 E 26 43 14 23 - - 0.0
26/12:30am 0.7 -5.0 0.7 100 0.0 ESE 20 39 11 21 - - 0.0
26/12:00am 0.1 -5.1 0.1 100 0.0 ESE 17 41 9 22 - - 0.0
 
Date/Time
EST
Temp
°C
App
Temp
°C
Dew
Point
°C
Rel
Hum
%
Delta-T
°C
Wind Press
QNH
hPa
Press
MSL
hPa
Rain since
9am
mm
Dir  Spd
km/h
Gust
km/h
Spd
kts
Gust
kts
25/11:30pm -0.3 -4.4 -0.3 100 0.0 E 11 33 6 18 - - 0.0
25/11:00pm -0.4 -4.2 -0.4 100 0.0 ESE 9 30 5 16 - - 0.0
25/10:30pm -0.1 -4.2 -0.1 100 0.0 ESE 11 32 6 17 - - 0.0
25/10:00pm 0.3 -3.7 0.3 100 0.0 ESE 11 28 6 15 - - 0.0
25/09:30pm 0.5 -3.5 0.5 100 0.0 ESE 11 28 6 15 - - 0.0
25/09:00pm 0.6 -3.4 0.6 100 0.0 ESE 11 30 6 16 - - 0.0
25/08:30pm 0.8 -2.4 0.8 100 0.0 ESE 7 22 4 12 - - 0.0
25/08:00pm 1.1 -2.4 1.1 100 0.0 E 9 28 5 15 - - 0.0
25/07:30pm 1.4 -2.5 1.4 100 0.0 ESE 11 30 6 16 - - 0.0
25/07:00pm 1.5 -2.0 1.5 100 0.0 ESE 9 30 5 16 - - 0.0
25/06:30pm 1.6 -2.2 1.6 100 0.0 SE 11 30 6 16 - - 0.0
25/06:00pm 1.7 -1.7 1.7 100 0.0 ESE 9 30 5 16 - - 0.0
25/05:30pm 1.8 -2.0 1.8 100 0.0 ESE 11 44 6 24 - - 0.0
25/05:00pm 1.9 -2.3 1.9 100 0.0 ESE 13 37 7 20 - - 0.0
25/04:30pm 1.9 -1.5 1.9 100 0.0 ESE 9 32 5 17 - - 0.0
25/04:00pm 2.0 -1.8 2.0 100 0.0 SE 11 26 6 14 - - 0.0
25/03:30pm 2.0 -3.3 2.0 100 0.0 SSE 19 32 10 17 - - 0.0
25/03:00pm 2.9 -0.3 2.9 100 0.0 SE 9 24 5 13 - - 0.0
25/02:30pm 3.2 -0.8 3.1 99 0.0 SE 13 28 7 15 - - 0.0
25/02:00pm 3.1 -0.5 3.0 99 0.0 SE 11 32 6 17 - - 0.0
25/01:30pm 3.2 -0.8 3.1 99 0.0 SE 13 30 7 16 - - 0.0
25/01:00pm 3.2 0.0 3.1 99 0.0 ESE 9 26 5 14 - - 0.0
25/12:30pm 2.6 -0.7 2.6 100 0.0 ESE 9 33 5 18 - - 0.0
25/12:00pm 2.4 -1.7 2.4 100 0.0 ESE 13 32 7 17 - - 0.0
25/11:30am 2.2 -1.5 2.2 100 0.0 SE 11 33 6 18 - - 0.0
25/11:00am 0.8 -3.2 0.8 100 0.0 SE 11 39 6 21 - - 0.0
25/10:30am 0.8 -4.3 0.8 100 0.0 SE 17 48 9 26 - - 0.0
25/10:00am 0.5 -4.6 0.5 100 0.0 SE 17 46 9 25 - - 0.0
25/09:30am 0.1 -5.5 0.1 100 0.0 SE 19 46 10 25 - - 0.0
25/09:00am 0.0 -4.8 0.0 100 0.0 SE 15 37 8 20 - - 0.0
25/08:30am -0.1 -5.7 -0.1 100 0.0 SE 19 39 10 21 - - 0.0
25/08:00am -0.2 -5.4 -0.2 100 0.0 SE 17 41 9 22 - - 0.0
25/07:30am -0.4 -5.3 -0.4 100 0.0 SE 15 43 8 23 - - 0.0
25/07:00am -0.6 -6.3 -0.6 100 0.0 SE 19 39 10 21 - - 0.0
25/06:30am -0.7 -7.3 -0.7 100 0.0 SE 24 46 13 25 - - 0.0
25/06:00am -0.7 -6.6 -0.7 100 0.0 SE 20 41 11 22 - - 0.0
25/05:30am -0.7 -6.6 -0.7 100 0.0 SE 20 39 11 21 - - 0.0
25/05:00am -0.9 -6.2 -0.9 100 0.0 SE 17 35 9 19 - - 0.0
25/04:30am -1.0 -6.7 -1.0 100 0.0 SE 19 44 10 24 - - 0.0
25/04:00am -1.1 -8.6 -1.1 100 0.0 SSE 28 46 15 25 - - 0.0
25/03:30am -0.5 -8.3 -0.5 100 0.0 SSE 30 59 16 32 - - 0.0
25/03:00am -0.5 -7.9 -0.5 100 0.0 SSE 28 54 15 29 - - 0.0
25/02:31am -0.9 -8.3 -0.9 100 0.0 SSE 28 48 15 26 - - 0.0
25/02:30am -0.9 -8.0 -0.9 100 0.0 SSE 26 48 14 26 - - 0.0
25/02:00am -0.9 -8.3 -0.9 100 0.0 SSE 28 48 15 26 - - 0.0
25/01:31am -0.8 -8.6 -0.8 100 0.0 SSE 30 48 16 26 - - 0.0
25/01:30am -0.8 -9.0 -0.8 100 0.0 SSE 32 48 17 26 - - 0.0
25/01:01am -0.7 -8.1 -0.7 100 0.0 SSE 28 56 15 30 - - 0.0
25/01:00am -0.7 -7.7 -0.7 100 0.0 SSE 26 56 14 30 - - 0.0
25/12:30am -0.4 -5.7 -0.4 100 0.0 SE 17 37 9 20 - - 0.0
25/12:00am -0.3 -6.9 -0.3 100 0.0 SSE 24 43 13 23 - - 0.0
 
Date/Time
EST
Temp
°C
App
Temp
°C
Dew
Point
°C
Rel
Hum
%
Delta-T
°C
Wind Press
QNH
hPa
Press
MSL
hPa
Rain since
9am
mm
Dir  Spd
km/h
Gust
km/h
Spd
kts
Gust
kts
24/11:45pm -0.2 -7.5 -0.2 100 0.0 SSE 28 50 15 27 - - 0.0
24/11:30pm -0.1 -6.7 -0.1 100 0.0 SSE 24 44 13 24 - - 0.0
24/11:00pm 0.0 -6.5 0.0 100 0.0 SSE 24 44 13 24 - - 0.0
24/10:39pm 0.0 -7.3 0.0 100 0.0 SSE 28 50 15 27 - - 0.0
24/10:30pm 0.0 -5.6 0.0 100 0.0 SSE 19 43 10 23 - - 0.0
24/10:00pm -0.1 -5.7 -0.1 100 0.0 SSE 19 37 10 20 - - 0.0
24/09:41pm -0.1 -7.4 -0.1 100 0.0 SSE 28 52 15 28 - - 0.0
24/09:30pm 0.0 -6.9 0.0 100 0.0 SSE 26 44 14 24 - - 0.0
24/09:00pm -0.2 -7.2 -0.2 100 0.0 SSE 26 44 14 24 - - 0.0
24/08:30pm -0.1 -8.2 -0.1 100 0.0 SSE 32 56 17 30 - - 0.0
24/08:00pm -0.1 -7.4 -0.1 100 0.0 SSE 28 48 15 26 - - 0.0
24/07:30pm -0.2 -7.9 -0.3 99 0.0 SSE 30 48 16 26 - - 0.0
24/07:26pm -0.1 -7.4 -0.1 100 0.0 SSE 28 48 15 26 - - 0.0
24/07:00pm -0.3 -6.5 -0.4 99 0.0 SSE 22 43 12 23 - - 0.0
24/06:30pm -0.4 -5.7 -0.5 99 0.0 SSE 17 35 9 19 - - 0.0
24/06:00pm -0.6 -4.8 -0.9 98 0.1 SSE 11 32 6 17 - - 0.0
24/05:30pm -0.7 -6.1 -1.1 97 0.1 S 17 37 9 20 - - 0.0
24/05:00pm -0.3 -6.0 -0.7 97 0.1 SSE 19 30 10 16 - - 0.0
24/04:30pm 0.5 -3.9 0.1 97 0.2 S 13 35 7 19 - - 0.0
24/04:00pm 0.8 -4.4 0.4 97 0.2 S 17 30 9 16 - - 0.0
24/03:30pm 1.1 -4.0 0.5 96 0.3 S 17 33 9 18 - - 0.0
24/03:00pm 1.5 -3.5 1.1 97 0.2 S 17 32 9 17 - - 0.0
24/02:30pm 1.8 -3.6 1.4 97 0.2 S 19 35 10 19 - - 0.0
24/02:00pm 2.6 -1.5 2.3 98 0.1 S 13 24 7 13 - - 0.0
24/01:30pm 2.8 -1.7 2.4 97 0.2 SSE 15 32 8 17 - - 0.0
24/01:00pm 2.7 -2.5 2.3 97 0.2 S 19 37 10 20 - - 0.0
24/12:30pm 2.3 -3.0 1.9 97 0.2 SSE 19 44 10 24 - - 0.0
24/12:00pm 2.8 -2.6 2.5 98 0.1 SSE 20 39 11 21 - - 0.0
24/11:30am 1.7 -4.6 1.6 99 0.0 SSE 24 41 13 22 - - 0.0
24/11:00am 1.9 -3.0 1.8 99 0.0 SSE 17 30 9 16 - - 0.0
24/10:30am 1.2 -4.2 1.2 100 0.0 SSE 19 46 10 25 - - 0.0
24/10:00am 0.4 -4.8 0.4 100 0.0 SSE 17 35 9 19 - - 0.0
24/09:30am 0.3 -5.4 0.3 100 0.0 SSE 20 39 11 21 - - 0.0
24/09:00am 0.5 -6.0 0.5 100 0.0 SSE 24 48 13 26 - - 0.4
24/08:30am 0.5 -6.0 0.5 100 0.0 SSE 24 48 13 26 - - 0.4
24/08:00am 0.5 -7.7 0.5 100 0.0 SSE 33 57 18 31 - - 0.4
24/07:30am 0.3 -7.9 0.3 100 0.0 SSE 33 52 18 28 - - 0.4
24/07:00am 0.4 -7.6 0.4 100 0.0 SSE 32 59 17 32 - - 0.4
24/06:30am 0.5 -8.1 0.5 100 0.0 SSE 35 63 19 34 - - 0.4
24/06:00am 0.6 -9.5 0.6 100 0.0 SSE 43 67 23 36 - - 0.4
24/05:30am 0.5 -9.6 0.5 100 0.0 SSE 43 72 23 39 - - 0.4
24/05:00am 0.5 -8.8 0.5 100 0.0 SSE 39 61 21 33 - - 0.4
24/04:30am 0.4 -8.9 0.4 100 0.0 SSE 39 67 21 36 - - 0.4
24/04:24am 0.5 -8.8 0.5 100 0.0 SSE 39 67 21 36 - - 0.4
24/04:05am 0.5 -6.7 0.5 100 0.0 SSE 28 46 15 25 - - 0.4
24/04:00am 0.7 -6.1 0.6 99 0.0 SSE 26 43 14 23 - - 0.4
24/03:30am 0.3 -7.9 0.3 100 0.0 SSE 33 57 18 31 - - 0.4
24/03:01am 0.1 -7.9 0.1 100 0.0 SSE 32 52 17 28 - - 0.4
24/03:00am 0.1 -7.9 0.1 100 0.0 SSE 32 48 17 26 - - 0.4
24/02:46am 0.1 -7.2 0.1 100 0.0 S 28 52 15 28 - - 0.4
24/02:30am 0.2 -6.7 0.2 100 0.0 SSE 26 46 14 25 - - 0.4
24/02:07am 0.4 -6.8 0.4 100 0.0 SSE 28 50 15 27 - - 0.4
24/02:00am 0.6 -5.9 0.6 100 0.0 SSE 24 50 13 27 - - 0.4
24/01:30am 0.5 -7.5 0.5 100 0.0 SSE 32 56 17 30 - - 0.4
24/01:00am 0.4 -7.2 0.4 100 0.0 SSE 30 52 16 28 - - 0.4
24/12:31am 0.6 -6.6 0.6 100 0.0 SSE 28 46 15 25 - - 0.4
24/12:30am 0.5 -7.1 0.5 100 0.0 SSE 30 46 16 25 - - 0.4
24/12:17am 0.9 -6.3 0.9 100 0.0 SSE 28 46 15 25 - - 0.2
24/12:00am 0.8 -6.0 0.8 100 0.0 SSE 26 44 14 24 - - 0.2
 
Date/Time
EST
Temp
°C
App
Temp
°C
Dew
Point
°C
Rel
Hum
%
Delta-T
°C
Wind Press
QNH
hPa
Press
MSL
hPa
Rain since
9am
mm
Dir  Spd
km/h
Gust
km/h
Spd
kts
Gust
kts
23/11:48pm 0.8 -6.4 0.8 100 0.0 S 28 48 15 26 - - 0.2
23/11:30pm 0.7 -5.7 0.7 100 0.0 S 24 50 13 27 - - 0.2
23/11:00pm 0.5 -5.2 0.5 100 0.0 S 20 41 11 22 - - 0.2
23/10:30pm 0.6 -5.1 0.6 100 0.0 SSE 20 41 11 22 - - 0.2
23/10:00pm 0.7 -4.8 0.7 100 0.0 SSE 19 48 10 26 - - 0.2
23/09:30pm 1.2 -4.4 1.2 100 0.0 SSE 20 37 11 20 - - 0.2
23/09:00pm 1.1 -5.7 1.1 100 0.0 S 26 46 14 25 - - 0.2
23/08:36pm 1.2 -5.9 1.2 100 0.0 S 28 52 15 28 - - 0.2
23/08:30pm 1.2 -5.5 1.2 100 0.0 S 26 44 14 24 - - 0.2
23/08:02pm 1.7 -5.3 1.7 100 0.0 S 28 50 15 27 - - 0.2
23/08:00pm 1.6 -5.5 1.6 100 0.0 S 28 43 15 23 - - 0.2
23/07:32pm 1.9 -5.1 1.9 100 0.0 S 28 54 15 29 - - 0.2
23/07:30pm 1.8 -4.8 1.8 100 0.0 S 26 54 14 29 - - 0.2
23/07:00pm 2.0 -5.8 2.0 100 0.0 S 32 54 17 29 - - 0.2
23/06:30pm 1.9 -5.1 1.9 100 0.0 S 28 46 15 25 - - 0.2
23/06:00pm 1.8 -5.2 1.8 100 0.0 S 28 48 15 26 - - 0.2
23/05:56pm 1.8 -5.2 1.8 100 0.0 S 28 48 15 26 - - 0.2
23/05:30pm 1.7 -4.2 1.7 100 0.0 S 22 37 12 20 - - 0.2
23/05:00pm 2.0 -3.9 2.0 100 0.0 S 22 41 12 22 - - 0.2
23/04:39pm 2.4 -4.5 2.3 99 0.0 S 28 48 15 26 - - 0.2
23/04:30pm 2.7 -3.1 2.4 98 0.1 S 22 39 12 21 - - 0.2
23/04:00pm 3.8 -1.2 3.5 98 0.1 S 19 30 10 16 - - 0.2
23/03:30pm 3.3 -3.9 3.2 99 0.0 S 30 57 16 31 - - 0.2
23/03:23pm 3.3 -3.5 3.2 99 0.0 S 28 57 15 31 - - 0.2
23/03:00pm 3.6 -1.6 3.5 99 0.0 S 20 39 11 21 - - 0.2
23/02:30pm 3.5 0.0 3.4 99 0.0 SSW 11 24 6 13 - - 0.2
23/02:00pm 3.4 -2.2 3.3 99 0.0 S 22 35 12 19 - - 0.2
23/01:30pm 3.7 -0.9 3.6 99 0.0 S 17 32 9 17 - - 0.2
23/01:00pm 3.9 -2.4 3.8 99 0.0 S 26 46 14 25 - - 0.2
23/12:30pm 3.6 -1.6 3.6 100 0.0 S 20 35 11 19 - - 0.2
23/12:00pm 3.3 -3.1 3.3 100 0.0 S 26 46 14 25 - - 0.0
23/11:30am 3.4 -2.2 3.4 100 0.0 S 22 37 12 20 - - 0.0
23/11:00am 3.2 -2.4 3.2 100 0.0 S 22 39 12 21 - - 0.0

Other formats

Comma delimited format used in spreadsheet applications
http://www.bom.gov.au/fwo/IDN60801/IDN60801.95925.axf

JavaScript Object Notation format (JSON) in row-major order
http://www.bom.gov.au/fwo/IDN60801/IDN60801.95925.json

Data quality

Most of these data are generated automatically and are frequently updated. Quality checks on data are not normally performed. It is possible for incorrect values to appear. Refer to information at About Latest Weather Observations and please check the disclaimer before using these data.